Time;durP1;ratioP1;P1;durP2;ratioP2;P2;SDS_P1;SDS_P2;PMS_P1;PMS_P2;Temp;Humidity;BMP_temperature;BMP_pressure;BME280_temperature;BME280_humidity;BME280_pressure;Samples;Min_cycle;Max_cycle;Signal;HPM_P1;HPM_P2
2023/04/02 00:00:58;;;;;;;;;;;6.70;99.90;;;;;;5074917;28;19931;-63
2023/04/02 00:03:41;;;;;;;;;;;6.60;99.90;;;;;;5056388;28;19947;-63
2023/04/02 00:06:29;;;;;;;;;;;6.70;99.90;;;;;;5053601;28;19924;-63
2023/04/02 00:09:03;;;;;;;;;;;6.70;99.90;;;;;;5074617;28;20415;-63
2023/04/02 00:11:36;;;;;;;;;;;6.70;99.90;;;;;;5065819;28;19924;-63
2023/04/02 00:14:21;;;;;;;;;;;6.70;99.90;;;;;;5071555;28;19928;-63
2023/04/02 00:16:54;;;;;;;;;;;6.80;99.90;;;;;;5070909;28;20398;-63
2023/04/02 00:19:32;;;;;;;;;;;6.80;99.90;;;;;;5057233;28;19920;-63
2023/04/02 00:22:11;;;;;;;;;;;6.80;99.90;;;;;;5057270;28;20423;-63
2023/04/02 00:24:38;;;;;;;;;;;6.70;99.90;;;;;;5073279;28;20025;-63
2023/04/02 00:27:10;;;;;;;;;;;6.80;99.90;;;;;;5073693;28;20412;-63
2023/04/02 00:29:44;;;;;;;;;;;6.70;99.90;;;;;;5056229;28;19920;-63
2023/04/02 00:32:19;;;;;;;;;;;6.70;99.90;;;;;;5055028;28;19924;-63
2023/04/02 00:34:51;;;;;;;;;;;6.70;99.90;;;;;;5069228;28;19990;-63
2023/04/02 00:37:22;;;;;;;;;;;6.80;99.90;;;;;;5051971;28;19921;-63
2023/04/02 00:40:00;;;;;;;;;;;6.80;99.90;;;;;;5050411;28;19925;-63
2023/04/02 00:42:33;;;;;;;;;;;6.80;99.90;;;;;;5056766;28;19959;-63
2023/04/02 00:45:08;;;;;;;;;;;6.70;99.90;;;;;;5071236;28;19920;-63
2023/04/02 00:47:39;;;;;;;;;;;6.80;99.90;;;;;;5055015;28;19920;-63
2023/04/02 00:50:12;;;;;;;;;;;6.80;99.90;;;;;;5072734;28;19931;-63
2023/04/02 00:52:45;;;;;;;;;;;6.80;99.90;;;;;;5053869;28;19931;-63
2023/04/02 00:55:26;;;;;;;;;;;6.80;99.90;;;;;;5071476;28;19920;-63
2023/04/02 00:57:54;;;;;;;;;;;6.70;99.90;;;;;;5069117;28;19951;-63
2023/04/02 01:00:28;;;;;;;;;;;6.70;99.90;;;;;;5070560;28;19920;-63
2023/04/02 01:03:15;;;;;;;;;;;6.70;99.90;;;;;;5072887;28;19974;-63
2023/04/02 01:05:44;;;;;;;;;;;6.70;99.90;;;;;;5071443;28;19920;-63
2023/04/02 01:08:28;;;;;;;;;;;6.70;99.90;;;;;;5059194;28;19931;-63
2023/04/02 01:11:00;;;;;;;;;;;6.70;99.90;;;;;;5072457;28;19927;-63
2023/04/02 01:13:47;;;;;;;;;;;6.70;99.90;;;;;;5069952;28;19928;-63
2023/04/02 01:16:14;;;;;;;;;;;6.70;99.90;;;;;;5051783;28;19932;-63
2023/04/02 01:19:06;;;;;;;;;;;6.70;99.90;;;;;;5053683;28;19924;-63
2023/04/02 01:21:44;;;;;;;;;;;6.70;99.90;;;;;;5054414;28;19932;-63
2023/04/02 01:24:16;;;;;;;;;;;6.70;99.90;;;;;;5071197;28;19950;-63
2023/04/02 01:26:58;;;;;;;;;;;6.70;99.90;;;;;;5069772;28;20397;-63
2023/04/02 01:29:32;;;;;;;;;;;6.70;99.90;;;;;;5070481;28;19927;-63
2023/04/02 01:32:09;;;;;;;;;;;6.60;99.90;;;;;;5066101;28;20338;-63
2023/04/02 01:34:37;;;;;;;;;;;6.60;99.90;;;;;;5069970;28;20316;-63
2023/04/02 01:37:13;;;;;;;;;;;6.70;99.90;;;;;;5072062;28;19954;-63
2023/04/02 01:39:52;;;;;;;;;;;6.70;99.90;;;;;;5070858;28;19928;-63
2023/04/02 01:42:28;;;;;;;;;;;6.60;99.90;;;;;;5068418;28;19924;-62
2023/04/02 01:45:03;;;;;;;;;;;6.60;99.90;;;;;;5038307;28;19973;-63
2023/04/02 01:47:34;;;;;;;;;;;6.60;99.90;;;;;;5066567;28;19920;-63
2023/04/02 01:50:03;;;;;;;;;;;6.60;99.90;;;;;;5069435;28;19951;-63
2023/04/02 01:52:40;;;;;;;;;;;6.60;99.90;;;;;;5069752;28;19967;-63
2023/04/02 01:55:13;;;;;;;;;;;6.60;99.90;;;;;;5067471;28;19924;-63
2023/04/02 01:57:42;;;;;;;;;;;6.50;99.90;;;;;;5070256;28;19928;-63
2023/04/02 02:00:14;;;;;;;;;;;6.50;99.90;;;;;;5051803;28;19927;-63
2023/04/02 02:02:50;;;;;;;;;;;6.50;99.90;;;;;;5069441;28;19947;-63
2023/04/02 02:05:22;;;;;;;;;;;6.40;99.90;;;;;;5039019;28;19921;-63
2023/04/02 02:07:56;;;;;;;;;;;6.40;99.90;;;;;;5052108;28;19920;-63
2023/04/02 02:10:32;;;;;;;;;;;6.40;99.90;;;;;;5053619;28;19924;-63
2023/04/02 02:13:05;;;;;;;;;;;6.40;99.90;;;;;;5068759;28;19924;-63
2023/04/02 02:15:37;;;;;;;;;;;6.40;99.90;;;;;;5066888;28;19924;-63
2023/04/02 02:18:11;;;;;;;;;;;6.40;99.90;;;;;;5052904;28;20277;-63
2023/04/02 02:20:38;;;;;;;;;;;6.40;99.90;;;;;;5069967;28;19932;-63
2023/04/02 02:23:10;;;;;;;;;;;6.40;99.90;;;;;;5061935;28;19986;-63
2023/04/02 02:25:37;;;;;;;;;;;6.40;99.90;;;;;;5046766;28;20301;-63
2023/04/02 02:28:15;;;;;;;;;;;6.40;99.90;;;;;;5069684;28;19921;-63
2023/04/02 02:31:05;;;;;;;;;;;6.40;99.90;;;;;;5071070;28;20010;-63
2023/04/02 02:33:47;;;;;;;;;;;6.40;99.90;;;;;;5069443;28;19926;-63
2023/04/02 02:36:25;;;;;;;;;;;6.30;99.90;;;;;;5052888;28;19962;-63
2023/04/02 02:39:03;;;;;;;;;;;6.30;99.90;;;;;;5069838;28;19920;-63
2023/04/02 02:41:58;;;;;;;;;;;6.40;99.90;;;;;;5069717;28;20001;-63
2023/04/02 02:44:33;;;;;;;;;;;6.40;99.90;;;;;;5074754;28;20052;-63
2023/04/02 02:47:12;;;;;;;;;;;6.40;99.90;;;;;;5055636;28;19920;-63
2023/04/02 02:49:52;;;;;;;;;;;6.40;99.90;;;;;;5035499;28;20077;-63
2023/04/02 02:52:27;;;;;;;;;;;6.40;99.90;;;;;;5067430;28;20546;-63
2023/04/02 02:55:11;;;;;;;;;;;6.40;99.90;;;;;;5070122;28;19924;-63
2023/04/02 02:58:05;;;;;;;;;;;6.40;99.90;;;;;;5066799;28;19924;-63
2023/04/02 03:00:48;;;;;;;;;;;6.40;99.90;;;;;;5067233;28;20475;-63
2023/04/02 03:03:22;;;;;;;;;;;6.40;99.90;;;;;;5052897;28;19921;-63
2023/04/02 03:06:02;;;;;;;;;;;6.40;99.90;;;;;;5064828;28;19924;-63
2023/04/02 03:08:35;;;;;;;;;;;6.40;99.90;;;;;;5053002;28;20015;-63
2023/04/02 03:11:18;;;;;;;;;;;6.40;99.90;;;;;;5052515;28;19970;-63
2023/04/02 03:13:55;;;;;;;;;;;6.40;99.90;;;;;;5068404;28;19928;-63
2023/04/02 03:16:43;;;;;;;;;;;6.40;99.90;;;;;;5050097;28;19924;-63
2023/04/02 03:19:23;;;;;;;;;;;6.30;99.90;;;;;;5052452;28;19920;-63
2023/04/02 03:22:07;;;;;;;;;;;6.30;99.90;;;;;;5035261;28;20011;-63
2023/04/02 03:24:42;;;;;;;;;;;6.30;99.90;;;;;;5052900;28;19920;-63
2023/04/02 03:27:22;;;;;;;;;;;6.30;99.90;;;;;;5066466;28;19924;-63
2023/04/02 03:29:58;;;;;;;;;;;6.30;99.90;;;;;;5054885;28;19920;-63
2023/04/02 03:32:34;;;;;;;;;;;6.30;99.90;;;;;;5072381;28;19920;-63
2023/04/02 03:35:24;;;;;;;;;;;6.20;99.90;;;;;;5073709;28;20018;-63
2023/04/02 03:38:02;;;;;;;;;;;6.20;99.90;;;;;;5031047;28;19970;-63
2023/04/02 03:40:37;;;;;;;;;;;6.10;99.90;;;;;;5056887;28;19927;-63
2023/04/02 03:43:13;;;;;;;;;;;6.10;99.90;;;;;;5073603;28;19924;-63
2023/04/02 03:45:48;;;;;;;;;;;6.10;99.90;;;;;;5053642;28;20411;-63
2023/04/02 03:48:20;;;;;;;;;;;6.10;99.90;;;;;;5070925;28;19920;-63
2023/04/02 03:50:55;;;;;;;;;;;6.10;99.90;;;;;;5056795;28;19974;-63
2023/04/02 03:53:28;;;;;;;;;;;6.10;99.90;;;;;;5066512;28;19978;-63
2023/04/02 03:56:00;;;;;;;;;;;6.10;99.90;;;;;;5039140;28;20380;-63
2023/04/02 03:58:41;;;;;;;;;;;6.10;99.90;;;;;;5056595;28;20559;-63
2023/04/02 04:01:27;;;;;;;;;;;6.10;99.90;;;;;;5073205;28;19920;-63
2023/04/02 04:04:06;;;;;;;;;;;6.10;99.90;;;;;;5056497;28;19927;-63
2023/04/02 04:06:41;;;;;;;;;;;6.00;99.90;;;;;;5073117;28;19931;-63
2023/04/02 04:09:28;;;;;;;;;;;6.00;99.90;;;;;;5056408;28;19931;-63
2023/04/02 04:12:07;;;;;;;;;;;6.00;99.90;;;;;;5055599;28;19920;-63
2023/04/02 04:14:42;;;;;;;;;;;6.00;99.90;;;;;;5046355;28;19924;-63
2023/04/02 04:17:37;;;;;;;;;;;5.90;99.90;;;;;;5070625;28;19928;-63
2023/04/02 04:20:15;;;;;;;;;;;5.90;99.90;;;;;;5052366;28;19921;-63
2023/04/02 04:22:42;;;;;;;;;;;5.90;99.90;;;;;;5056077;28;19963;-63
2023/04/02 04:25:21;;;;;;;;;;;5.80;99.90;;;;;;5056258;28;19924;-63
2023/04/02 04:28:08;;;;;;;;;;;5.80;99.90;;;;;;5053358;28;20450;-63
2023/04/02 04:30:51;;;;;;;;;;;5.80;99.90;;;;;;5071867;28;19981;-63
2023/04/02 04:33:24;;;;;;;;;;;5.80;99.90;;;;;;5055562;28;19921;-63
2023/04/02 04:36:01;;;;;;;;;;;5.80;99.90;;;;;;5068358;28;20373;-63
2023/04/02 04:38:38;;;;;;;;;;;5.70;99.90;;;;;;5071482;28;19925;-63
2023/04/02 04:41:15;;;;;;;;;;;5.60;99.90;;;;;;5053700;28;20011;-63
2023/04/02 04:43:50;;;;;;;;;;;5.60;99.90;;;;;;5038945;28;19931;-63
2023/04/02 04:46:20;;;;;;;;;;;5.60;99.90;;;;;;5072321;28;19927;-63
2023/04/02 04:48:57;;;;;;;;;;;5.50;99.90;;;;;;5054519;28;19995;-63
2023/04/02 04:51:28;;;;;;;;;;;5.50;99.90;;;;;;5072231;28;20403;-63
2023/04/02 04:53:55;;;;;;;;;;;5.50;99.90;;;;;;5055733;28;19920;-63
2023/04/02 04:56:30;;;;;;;;;;;5.50;99.90;;;;;;5055384;28;19924;-63
2023/04/02 04:59:17;;;;;;;;;;;5.50;99.90;;;;;;5070334;28;19924;-63
2023/04/02 05:01:54;;;;;;;;;;;5.40;99.90;;;;;;5070422;28;19920;-63
2023/04/02 05:04:34;;;;;;;;;;;5.40;99.90;;;;;;5054359;28;20377;-63
2023/04/02 05:07:16;;;;;;;;;;;5.40;99.90;;;;;;5053164;28;19924;-63
2023/04/02 05:09:59;;;;;;;;;;;5.40;99.90;;;;;;5068537;28;19926;-63
2023/04/02 05:12:35;;;;;;;;;;;5.30;99.90;;;;;;5053093;28;20546;-63
2023/04/02 05:15:13;;;;;;;;;;;5.40;99.90;;;;;;5054087;28;19924;-63
2023/04/02 05:18:09;;;;;;;;;;;5.40;99.90;;;;;;5054918;28;19920;-63
2023/04/02 05:20:46;;;;;;;;;;;5.40;99.90;;;;;;5054159;28;20006;-63
2023/04/02 05:23:22;;;;;;;;;;;5.40;99.90;;;;;;5055797;28;19928;-63
2023/04/02 05:26:08;;;;;;;;;;;5.40;99.90;;;;;;5053211;28;19928;-63
2023/04/02 05:29:00;;;;;;;;;;;5.40;99.90;;;;;;5054913;28;20323;-63
2023/04/02 05:31:43;;;;;;;;;;;5.40;99.90;;;;;;5056079;28;20380;-63
2023/04/02 05:34:22;;;;;;;;;;;5.40;99.90;;;;;;5051293;28;19921;-63
2023/04/02 05:36:49;;;;;;;;;;;5.40;99.90;;;;;;5052249;28;19930;-63
2023/04/02 05:39:20;;;;;;;;;;;5.40;99.90;;;;;;5071514;28;19925;-63
2023/04/02 05:42:01;;;;;;;;;;;5.30;99.90;;;;;;5054960;28;20304;-63
2023/04/02 05:44:55;;;;;;;;;;;5.40;99.90;;;;;;5069072;28;19963;-63
2023/04/02 05:47:30;;;;;;;;;;;5.40;99.90;;;;;;5054380;28;19959;-63
2023/04/02 05:50:06;;;;;;;;;;;5.40;99.90;;;;;;5053699;28;20396;-63
2023/04/02 05:53:22;;;;;;;;;;;5.40;99.90;;;;;;5052612;28;19931;-63
2023/04/02 05:56:13;;;;;;;;;;;5.30;99.90;;;;;;4993846;28;20372;-63
2023/04/02 05:58:48;;;;;;;;;;;5.30;99.90;;;;;;4994190;28;19921;-63
2023/04/02 06:01:34;;;;;;;;;;;5.40;99.90;;;;;;5031993;28;20320;-63
2023/04/02 06:04:22;;;;;;;;;;;5.40;99.90;;;;;;5053346;28;20003;-63
2023/04/02 06:07:06;;;;;;;;;;;5.40;99.90;;;;;;5053046;28;19966;-64
2023/04/02 06:09:47;;;;;;;;;;;5.50;99.90;;;;;;5073994;28;19924;-63
2023/04/02 06:12:25;;;;;;;;;;;5.60;99.90;;;;;;5053469;28;20399;-62
2023/04/02 06:14:58;;;;;;;;;;;5.60;99.90;;;;;;5065270;28;19921;-62
2023/04/02 06:17:42;;;;;;;;;;;5.70;99.90;;;;;;5050851;28;19958;-62
2023/04/02 06:20:15;;;;;;;;;;;5.80;99.90;;;;;;5070058;28;19924;-63
2023/04/02 06:22:50;;;;;;;;;;;5.80;99.90;;;;;;5052159;28;19924;-63
2023/04/02 06:25:25;;;;;;;;;;;5.80;99.90;;;;;;5056594;28;19951;-63
2023/04/02 06:28:00;;;;;;;;;;;5.80;99.90;;;;;;5069960;28;19920;-63
2023/04/02 06:30:34;;;;;;;;;;;5.80;99.90;;;;;;5060043;28;19927;-63
2023/04/02 06:33:02;;;;;;;;;;;5.90;99.90;;;;;;5054481;28;19920;-63
2023/04/02 06:35:37;;;;;;;;;;;5.90;99.90;;;;;;5073292;28;20338;-63
2023/04/02 06:38:16;;;;;;;;;;;6.00;99.90;;;;;;5069465;28;20010;-63
2023/04/02 06:40:45;;;;;;;;;;;6.00;99.90;;;;;;5070689;28;19924;-63
2023/04/02 06:43:45;;;;;;;;;;;6.00;99.90;;;;;;5057993;28;19924;-63
2023/04/02 06:46:33;;;;;;;;;;;6.00;99.90;;;;;;5069557;28;19920;-63
2023/04/02 06:49:27;;;;;;;;;;;6.10;99.90;;;;;;5053617;28;20377;-63
2023/04/02 06:52:03;;;;;;;;;;;6.20;99.90;;;;;;5053389;28;19994;-63
2023/04/02 06:54:35;;;;;;;;;;;6.30;99.90;;;;;;5066781;28;19924;-63
2023/04/02 06:57:09;;;;;;;;;;;6.40;99.90;;;;;;5037491;28;19920;-63
2023/04/02 06:59:44;;;;;;;;;;;6.40;99.90;;;;;;5058534;28;20389;-63
2023/04/02 07:02:25;;;;;;;;;;;6.50;99.90;;;;;;5038014;28;20431;-63
2023/04/02 07:04:55;;;;;;;;;;;6.50;99.90;;;;;;5036437;28;19927;-63
2023/04/02 07:07:27;;;;;;;;;;;6.60;99.90;;;;;;5049598;28;20417;-63
2023/04/02 07:10:02;;;;;;;;;;;6.60;99.90;;;;;;5057886;28;20406;-63
2023/04/02 07:12:33;;;;;;;;;;;6.60;99.90;;;;;;5053399;28;20055;-63
2023/04/02 07:15:06;;;;;;;;;;;6.70;99.90;;;;;;5053196;28;19924;-63
2023/04/02 07:17:37;;;;;;;;;;;6.80;99.90;;;;;;5069198;28;20016;-63
2023/04/02 07:20:30;;;;;;;;;;;6.80;99.90;;;;;;5064095;28;19921;-63
2023/04/02 07:23:00;;;;;;;;;;;6.90;99.90;;;;;;5049461;28;19932;-63
2023/04/02 07:25:27;;;;;;;;;;;7.00;99.90;;;;;;5050278;28;19921;-63
2023/04/02 07:28:00;;;;;;;;;;;7.00;99.90;;;;;;5053078;28;19928;-63
2023/04/02 07:30:32;;;;;;;;;;;7.10;99.90;;;;;;5067305;28;20034;-63
2023/04/02 07:32:59;;;;;;;;;;;7.10;99.90;;;;;;5049794;28;19931;-63
2023/04/02 07:35:30;;;;;;;;;;;7.20;99.90;;;;;;5067923;28;20439;-63
2023/04/02 07:38:02;;;;;;;;;;;7.20;99.90;;;;;;5068787;28;19924;-63
2023/04/02 07:40:34;;;;;;;;;;;7.30;99.90;;;;;;5072177;28;19943;-63
2023/04/02 07:43:06;;;;;;;;;;;7.30;99.90;;;;;;5068570;28;19928;-63
2023/04/02 07:45:37;;;;;;;;;;;7.40;99.90;;;;;;5052000;28;19921;-63
2023/04/02 07:48:10;;;;;;;;;;;7.50;99.90;;;;;;5066031;28;20454;-63
2023/04/02 07:50:37;;;;;;;;;;;7.60;99.90;;;;;;5050581;28;20373;-63
2023/04/02 07:53:23;;;;;;;;;;;7.70;99.90;;;;;;5050679;28;19925;-63
2023/04/02 07:55:55;;;;;;;;;;;7.80;99.90;;;;;;5048554;28;19969;-64
2023/04/02 07:58:28;;;;;;;;;;;7.90;99.90;;;;;;5065054;28;19935;-64
2023/04/02 08:01:02;;;;;;;;;;;8.00;99.90;;;;;;5055029;28;19931;-63
2023/04/02 08:03:29;;;;;;;;;;;8.00;99.90;;;;;;5071675;28;19933;-64
2023/04/02 08:06:01;;;;;;;;;;;8.10;99.90;;;;;;5050039;28;19993;-64
2023/04/02 08:08:27;;;;;;;;;;;8.10;99.90;;;;;;5031454;28;19974;-63
2023/04/02 08:10:54;;;;;;;;;;;8.10;99.90;;;;;;5069554;28;19920;-64
2023/04/02 08:13:21;;;;;;;;;;;8.30;99.90;;;;;;5064922;28;20388;-63
2023/04/02 08:15:53;;;;;;;;;;;8.30;99.90;;;;;;5069480;28;19950;-63
2023/04/02 08:18:25;;;;;;;;;;;8.40;99.90;;;;;;5066234;28;20363;-63
2023/04/02 08:20:57;;;;;;;;;;;8.50;99.90;;;;;;5054314;28;20435;-63
2023/04/02 08:23:30;;;;;;;;;;;8.50;99.90;;;;;;5069634;28;19924;-64
2023/04/02 08:26:02;;;;;;;;;;;8.40;99.90;;;;;;5049422;28;20297;-63
2023/04/02 08:28:34;;;;;;;;;;;8.40;99.90;;;;;;5067660;28;19924;-64
2023/04/02 08:31:07;;;;;;;;;;;8.50;99.90;;;;;;5073960;28;19924;-64
2023/04/02 08:33:34;;;;;;;;;;;8.50;99.90;;;;;;5067374;28;19966;-63
2023/04/02 08:36:12;;;;;;;;;;;8.50;99.90;;;;;;5053757;28;20078;-63
2023/04/02 08:38:45;;;;;;;;;;;8.60;99.90;;;;;;5068682;28;19927;-63
2023/04/02 08:41:20;;;;;;;;;;;8.60;99.90;;;;;;5070906;28;19970;-63
2023/04/02 08:43:55;;;;;;;;;;;8.70;99.90;;;;;;5070726;28;20019;-64
2023/04/02 08:46:32;;;;;;;;;;;8.80;99.90;;;;;;5068207;28;19994;-64
2023/04/02 08:49:10;;;;;;;;;;;8.80;99.90;;;;;;5070729;28;19931;-64
2023/04/02 08:51:43;;;;;;;;;;;8.80;99.90;;;;;;5071619;28;19924;-66
2023/04/02 08:54:21;;;;;;;;;;;8.90;99.90;;;;;;5054096;28;20395;-64
2023/04/02 08:57:00;;;;;;;;;;;9.00;99.90;;;;;;5056313;28;19920;-64
2023/04/02 08:59:33;;;;;;;;;;;9.00;99.90;;;;;;5069360;28;19920;-63
2023/04/02 09:02:19;;;;;;;;;;;8.90;99.90;;;;;;5066480;28;19930;-63
2023/04/02 09:04:46;;;;;;;;;;;8.90;99.90;;;;;;5071265;28;19928;-63
2023/04/02 09:07:17;;;;;;;;;;;8.90;99.90;;;;;;5054880;28;19975;-64
2023/04/02 09:09:49;;;;;;;;;;;8.80;99.90;;;;;;5054436;28;20428;-64
2023/04/02 09:12:24;;;;;;;;;;;8.80;99.90;;;;;;5070717;28;19948;-64
2023/04/02 09:15:17;;;;;;;;;;;8.80;99.90;;;;;;5055039;28;19924;-64
2023/04/02 09:17:54;;;;;;;;;;;8.80;99.90;;;;;;5069874;28;19925;-64
2023/04/02 09:20:27;;;;;;;;;;;8.90;99.90;;;;;;5071558;28;19932;-64
2023/04/02 09:22:58;;;;;;;;;;;8.90;99.90;;;;;;5069893;28;19925;-64
2023/04/02 09:25:31;;;;;;;;;;;9.00;99.90;;;;;;5071764;28;19920;-63
2023/04/02 09:28:02;;;;;;;;;;;9.10;99.90;;;;;;5071186;28;19920;-63
2023/04/02 09:30:41;;;;;;;;;;;9.20;99.90;;;;;;5069892;28;19924;-63
2023/04/02 09:33:13;;;;;;;;;;;9.20;99.90;;;;;;5071917;28;19931;-63
2023/04/02 09:35:48;;;;;;;;;;;9.40;99.90;;;;;;5055851;28;19920;-64
2023/04/02 09:38:21;;;;;;;;;;;9.40;99.90;;;;;;5068399;28;20365;-64
2023/04/02 09:40:52;;;;;;;;;;;9.50;99.90;;;;;;5054810;28;19927;-64
2023/04/02 09:43:23;;;;;;;;;;;9.50;99.90;;;;;;5069064;28;19947;-63
2023/04/02 09:46:09;;;;;;;;;;;9.70;99.90;;;;;;5072017;28;19928;-64
2023/04/02 09:48:40;;;;;;;;;;;9.70;99.90;;;;;;5068159;28;19924;-64
2023/04/02 09:51:16;;;;;;;;;;;9.80;99.90;;;;;;5067328;28;19927;-64
2023/04/02 09:53:43;;;;;;;;;;;9.90;99.90;;;;;;5066604;28;20311;-64
2023/04/02 09:56:20;;;;;;;;;;;10.00;99.90;;;;;;5070692;28;19973;-64
2023/04/02 09:59:01;;;;;;;;;;;10.00;99.90;;;;;;5066936;28;19924;-64
2023/04/02 10:01:35;;;;;;;;;;;10.00;99.90;;;;;;5071183;28;19927;-64
2023/04/02 10:04:25;;;;;;;;;;;10.00;99.90;;;;;;5069806;28;19924;-64
2023/04/02 10:06:56;;;;;;;;;;;10.10;99.90;;;;;;5067538;28;19921;-64
2023/04/02 10:09:33;;;;;;;;;;;10.10;99.90;;;;;;5070557;28;19920;-64
2023/04/02 10:12:01;;;;;;;;;;;10.10;99.90;;;;;;5050977;28;20384;-64
2023/04/02 10:14:30;;;;;;;;;;;10.20;99.90;;;;;;5071083;28;19931;-64
2023/04/02 10:17:10;;;;;;;;;;;10.10;99.90;;;;;;5068187;28;19932;-64
2023/04/02 10:19:39;;;;;;;;;;;10.10;99.90;;;;;;5066368;28;19992;-64
2023/04/02 10:22:13;;;;;;;;;;;10.00;99.90;;;;;;5066937;28;19920;-64
2023/04/02 10:24:40;;;;;;;;;;;10.00;99.90;;;;;;5053904;28;19966;-64
2023/04/02 10:27:17;;;;;;;;;;;9.80;99.90;;;;;;5070925;28;19924;-64
2023/04/02 10:29:50;;;;;;;;;;;9.90;99.90;;;;;;5066768;28;19931;-64
2023/04/02 10:32:27;;;;;;;;;;;10.00;99.90;;;;;;5048770;28;19924;-64
2023/04/02 10:35:07;;;;;;;;;;;10.10;99.90;;;;;;5047163;28;19927;-64
2023/04/02 10:37:53;;;;;;;;;;;10.10;99.90;;;;;;5052979;28;19974;-64
2023/04/02 10:40:28;;;;;;;;;;;10.20;99.90;;;;;;5062217;28;19931;-64
2023/04/02 10:43:18;;;;;;;;;;;10.30;99.90;;;;;;5065349;28;20459;-64
2023/04/02 10:46:05;;;;;;;;;;;10.30;99.90;;;;;;5053314;28;20537;-63
2023/04/02 10:48:37;;;;;;;;;;;10.40;99.90;;;;;;5052702;28;19986;-64
2023/04/02 10:51:06;;;;;;;;;;;10.40;99.90;;;;;;5071506;28;19921;-64
2023/04/02 10:53:38;;;;;;;;;;;10.40;99.90;;;;;;5070045;28;19920;-64
2023/04/02 10:56:11;;;;;;;;;;;10.60;99.90;;;;;;5067851;28;19931;-64
2023/04/02 10:58:46;;;;;;;;;;;10.60;99.90;;;;;;5069910;28;20360;-64
2023/04/02 11:01:23;;;;;;;;;;;10.70;99.90;;;;;;5064280;28;19932;-64
2023/04/02 11:03:55;;;;;;;;;;;10.70;99.90;;;;;;5049998;28;19920;-64
2023/04/02 11:06:47;;;;;;;;;;;10.80;99.90;;;;;;5059731;28;19924;-64
2023/04/02 11:09:24;;;;;;;;;;;10.80;99.90;;;;;;5044822;28;19928;-64
2023/04/02 11:11:57;;;;;;;;;;;10.80;99.90;;;;;;5049949;28;20410;-64
2023/04/02 11:14:30;;;;;;;;;;;10.90;99.90;;;;;;5066868;28;20009;-64
2023/04/02 11:17:02;;;;;;;;;;;10.90;99.90;;;;;;5067143;28;19925;-64
2023/04/02 11:19:34;;;;;;;;;;;11.10;99.90;;;;;;5053462;28;19990;-64
2023/04/02 11:22:14;;;;;;;;;;;11.20;99.90;;;;;;5049464;28;19967;-64
2023/04/02 11:24:49;;;;;;;;;;;11.20;99.90;;;;;;5068301;28;19928;-64
2023/04/02 11:27:24;;;;;;;;;;;11.20;99.90;;;;;;5064159;28;19921;-64
2023/04/02 11:30:05;;;;;;;;;;;11.20;99.90;;;;;;5051316;28;20304;-64
2023/04/02 11:32:46;;;;;;;;;;;11.20;99.90;;;;;;5047239;28;19970;-64
2023/04/02 11:35:26;;;;;;;;;;;11.20;99.90;;;;;;5063706;28;19977;-64
2023/04/02 11:38:08;;;;;;;;;;;11.20;99.90;;;;;;5051098;28;20015;-64
2023/04/02 11:40:40;;;;;;;;;;;11.20;99.90;;;;;;5063385;28;19931;-64
2023/04/02 11:43:40;;;;;;;;;;;11.20;99.90;;;;;;5050134;28;19924;-64
2023/04/02 11:46:14;;;;;;;;;;;11.30;99.90;;;;;;5066407;28;19978;-64
2023/04/02 11:48:47;;;;;;;;;;;11.20;99.90;;;;;;5052877;28;19954;-64
2023/04/02 11:51:21;;;;;;;;;;;11.20;99.90;;;;;;5071161;28;19920;-64
2023/04/02 11:53:53;;;;;;;;;;;11.10;99.90;;;;;;5057804;28;19932;-65
2023/04/02 11:56:30;;;;;;;;;;;11.10;99.90;;;;;;5070003;28;20011;-64
2023/04/02 11:59:02;;;;;;;;;;;11.00;99.90;;;;;;5065099;28;19920;-64
2023/04/02 12:01:44;;;;;;;;;;;11.10;99.90;;;;;;5075621;28;19920;-64
2023/04/02 12:04:29;;;;;;;;;;;11.10;99.90;;;;;;5051534;28;19927;-64
2023/04/02 12:07:20;;;;;;;;;;;11.20;99.90;;;;;;5069627;28;19925;-66
2023/04/02 12:09:52;;;;;;;;;;;11.30;99.90;;;;;;5066423;28;19920;-64
2023/04/02 12:12:25;;;;;;;;;;;11.50;99.90;;;;;;5052267;28;20363;-64
2023/04/02 12:14:58;;;;;;;;;;;11.50;99.90;;;;;;5064385;28;20343;-64
2023/04/02 12:17:36;;;;;;;;;;;11.60;99.90;;;;;;5047895;28;19928;-64
2023/04/02 12:20:08;;;;;;;;;;;11.70;99.90;;;;;;5071513;28;19924;-64
2023/04/02 12:22:50;;;;;;;;;;;11.90;99.90;;;;;;5067175;28;19921;-64
2023/04/02 12:25:22;;;;;;;;;;;12.20;99.90;;;;;;5054480;28;19970;-64
2023/04/02 12:28:16;;;;;;;;;;;12.30;99.90;;;;;;5069133;28;20335;-64
2023/04/02 12:30:44;;;;;;;;;;;12.40;99.90;;;;;;5065955;28;19921;-64
2023/04/02 12:33:18;;;;;;;;;;;12.40;99.90;;;;;;5067714;28;20270;-64
2023/04/02 12:35:54;;;;;;;;;;;12.50;99.90;;;;;;5069151;28;19924;-64
2023/04/02 12:38:29;;;;;;;;;;;12.50;99.90;;;;;;5058497;28;20405;-64
2023/04/02 12:41:03;;;;;;;;;;;12.40;99.90;;;;;;5053557;28;19982;-64
2023/04/02 12:43:36;;;;;;;;;;;12.20;99.90;;;;;;5073910;28;19927;-64
2023/04/02 12:46:08;;;;;;;;;;;12.00;99.90;;;;;;5067190;28;19928;-64
2023/04/02 12:48:40;;;;;;;;;;;11.90;99.90;;;;;;5065736;28;20308;-64
2023/04/02 12:51:11;;;;;;;;;;;11.70;99.90;;;;;;5066336;28;19924;-64
2023/04/02 12:53:48;;;;;;;;;;;11.50;99.90;;;;;;5064399;28;20384;-64
2023/04/02 12:56:21;;;;;;;;;;;11.40;99.90;;;;;;5052798;28;19928;-64
2023/04/02 12:58:58;;;;;;;;;;;11.30;99.90;;;;;;5064418;28;19928;-64
2023/04/02 13:01:30;;;;;;;;;;;11.10;99.90;;;;;;5038433;28;20011;-64
2023/04/02 13:04:04;;;;;;;;;;;11.00;99.90;;;;;;5064429;28;19927;-64
2023/04/02 13:06:32;;;;;;;;;;;11.00;99.90;;;;;;5047605;28;19929;-64
2023/04/02 13:09:05;;;;;;;;;;;10.90;99.90;;;;;;5059583;28;19920;-64
2023/04/02 13:11:38;;;;;;;;;;;10.90;99.90;;;;;;5068872;28;19931;-64
2023/04/02 13:14:17;;;;;;;;;;;10.80;99.90;;;;;;5068454;28;19924;-64
2023/04/02 13:16:44;;;;;;;;;;;10.80;99.90;;;;;;5069518;28;19928;-64
2023/04/02 13:19:16;;;;;;;;;;;10.70;99.90;;;;;;5061766;28;19926;-64
2023/04/02 13:21:43;;;;;;;;;;;10.60;99.90;;;;;;5065107;28;19928;-64
2023/04/02 13:24:19;;;;;;;;;;;10.60;99.90;;;;;;5065378;28;19924;-64
2023/04/02 13:26:49;;;;;;;;;;;10.50;99.90;;;;;;5069135;28;19936;-63
2023/04/02 13:29:28;;;;;;;;;;;10.60;99.90;;;;;;5059358;28;19924;-64
2023/04/02 13:32:04;;;;;;;;;;;10.60;99.90;;;;;;5052881;28;20893;-64
2023/04/02 13:34:36;;;;;;;;;;;10.60;99.90;;;;;;5052951;28;19927;-64
2023/04/02 13:37:09;;;;;;;;;;;10.70;99.90;;;;;;5067499;28;19924;-64
2023/04/02 13:39:41;;;;;;;;;;;10.90;99.90;;;;;;5054452;28;19927;-64
2023/04/02 13:42:10;;;;;;;;;;;11.00;99.90;;;;;;5068873;28;19921;-64
2023/04/02 13:44:42;;;;;;;;;;;10.80;99.90;;;;;;5067285;28;19927;-64
2023/04/02 13:47:14;;;;;;;;;;;10.70;99.90;;;;;;5068890;28;19925;-64
2023/04/02 13:49:41;;;;;;;;;;;10.40;99.90;;;;;;5072589;28;19920;-65
2023/04/02 13:52:12;;;;;;;;;;;10.20;99.90;;;;;;5054330;28;20023;-64
2023/04/02 13:54:44;;;;;;;;;;;10.10;99.90;;;;;;5069732;28;19920;-64
2023/04/02 13:57:10;;;;;;;;;;;10.00;99.90;;;;;;5059186;28;19920;-64
2023/04/02 13:59:42;;;;;;;;;;;10.00;99.90;;;;;;5069600;28;19924;-64
2023/04/02 14:02:19;;;;;;;;;;;9.90;99.90;;;;;;5051556;28;20435;-64
2023/04/02 14:04:59;;;;;;;;;;;9.80;99.90;;;;;;5067179;28;19970;-64
2023/04/02 14:07:40;;;;;;;;;;;9.80;99.90;;;;;;5065096;28;20166;-65
2023/04/02 14:10:21;;;;;;;;;;;9.80;99.90;;;;;;5051725;28;19920;-65
2023/04/02 14:12:56;;;;;;;;;;;9.90;99.90;;;;;;5052139;28;20293;-65
2023/04/02 14:15:28;;;;;;;;;;;9.90;99.90;;;;;;5056762;28;19920;-65
2023/04/02 14:18:06;;;;;;;;;;;9.90;99.90;;;;;;5059936;28;19924;-65
2023/04/02 14:20:48;;;;;;;;;;;9.90;99.90;;;;;;5077730;28;19920;-65
2023/04/02 14:23:27;;;;;;;;;;;9.80;99.90;;;;;;5069836;28;20423;-65
2023/04/02 14:25:56;;;;;;;;;;;9.80;99.90;;;;;;5063935;28;19990;-65
2023/04/02 14:28:41;;;;;;;;;;;9.90;99.90;;;;;;5069620;28;19966;-65
2023/04/02 14:31:17;;;;;;;;;;;9.90;99.90;;;;;;5070264;28;19924;-65
2023/04/02 14:34:07;;;;;;;;;;;9.90;99.90;;;;;;5071808;28;20020;-64
2023/04/02 14:36:39;;;;;;;;;;;9.80;99.90;;;;;;5064950;28;19935;-64
2023/04/02 14:39:05;;;;;;;;;;;9.80;99.90;;;;;;5071492;28;19926;-64
2023/04/02 14:41:38;;;;;;;;;;;9.80;99.90;;;;;;5068459;28;19921;-65
2023/04/02 14:44:06;;;;;;;;;;;9.70;99.90;;;;;;5051918;28;19924;-65
2023/04/02 14:46:35;;;;;;;;;;;9.60;99.90;;;;;;5067326;28;19920;-67
2023/04/02 14:49:10;;;;;;;;;;;9.50;99.90;;;;;;5067038;28;19973;-64
2023/04/02 14:51:40;;;;;;;;;;;9.50;99.90;;;;;;5061821;28;19956;-64
2023/04/02 14:54:16;;;;;;;;;;;9.40;99.90;;;;;;5075272;28;19921;-64
2023/04/02 14:56:51;;;;;;;;;;;9.30;99.90;;;;;;5071340;28;19928;-64
2023/04/02 14:59:42;;;;;;;;;;;9.20;99.90;;;;;;5059710;28;19924;-64
2023/04/02 15:02:17;;;;;;;;;;;9.10;99.90;;;;;;5064918;28;19924;-64
2023/04/02 15:05:04;;;;;;;;;;;9.10;99.90;;;;;;5072709;28;19921;-64
2023/04/02 15:07:40;;;;;;;;;;;9.00;99.90;;;;;;5069712;28;19943;-64
2023/04/02 15:10:28;;;;;;;;;;;8.90;99.90;;;;;;5067116;28;19920;-64
2023/04/02 15:13:03;;;;;;;;;;;8.90;99.90;;;;;;5062473;28;19925;-64
2023/04/02 15:15:35;;;;;;;;;;;8.80;99.90;;;;;;5068590;28;20370;-65
2023/04/02 15:18:12;;;;;;;;;;;8.80;99.90;;;;;;5065957;28;19921;-65